Time;durP1;ratioP1;P1;durP2;ratioP2;P2;SDS_P1;SDS_P2;PMS_P1;PMS_P2;Temp;Humidity;BMP_temperature;BMP_pressure;BME280_temperature;BME280_humidity;BME280_pressure;Samples;Min_cycle;Max_cycle;Signal;HPM_P1;HPM_P2
2024/01/12 00:04:19;;;;;;;;;;;;;;;20.32;23.62;96621.53;10514704;28;1989;-67
2024/01/12 00:09:19;;;;;;;;;;;;;;;20.30;23.48;96623.63;10521929;28;1905;-68
2024/01/12 00:14:19;;;;;;;;;;;;;;;20.27;23.37;96618.88;10512074;28;1952;-69
2024/01/12 00:19:20;;;;;;;;;;;;;;;20.24;23.56;96614.09;10496308;28;2079;-67
2024/01/12 00:24:20;;;;;;;;;;;;;;;20.21;23.61;96619.88;10496598;28;1984;-66
2024/01/12 00:29:20;;;;;;;;;;;;;;;20.21;23.23;96619.88;10518178;28;1912;-67
2024/01/12 00:34:20;;;;;;;;;;;;;;;20.18;23.39;96628.25;10515968;28;2387;-67
2024/01/12 00:39:21;;;;;;;;;;;;;;;20.17;23.25;96629.28;10509826;28;1988;-67
2024/01/12 00:44:25;;;;;;;;;;;;;;;20.17;22.82;96639.81;10497698;28;2001;-68
2024/01/12 00:49:25;;;;;;;;;;;;;;;20.15;23.12;96623.50;10509741;28;2013;-66
2024/01/12 00:54:26;;;;;;;;;;;;;;;20.13;22.79;96618.44;10512731;28;2012;-67
2024/01/12 00:59:27;;;;;;;;;;;;;;;20.10;23.29;96628.69;10516051;28;1979;-68
2024/01/12 01:04:27;;;;;;;;;;;;;;;20.09;23.10;96633.16;10512678;28;1943;-69
2024/01/12 01:09:27;;;;;;;;;;;;;;;20.09;23.01;96642.91;10514224;28;2047;-67
2024/01/12 01:14:28;;;;;;;;;;;;;;;20.07;22.93;96647.63;10512148;28;1996;-67
2024/01/12 01:19:28;;;;;;;;;;;;;;;20.05;22.83;96652.34;10516485;28;2539;-68
2024/01/12 01:24:29;;;;;;;;;;;;;;;20.07;22.47;96655.53;10521358;28;1960;-68
2024/01/12 01:29:29;;;;;;;;;;;;;;;20.08;22.39;96654.47;10507689;28;2141;-67
2024/01/12 01:34:29;;;;;;;;;;;;;;;20.06;22.40;96657.34;10495929;28;2039;-69
2024/01/12 01:39:29;;;;;;;;;;;;;;;20.02;22.70;96658.09;10511896;28;2062;-70
2024/01/12 01:44:30;;;;;;;;;;;;;;;20.06;22.53;96665.25;10512685;28;2044;-69
2024/01/12 01:49:30;;;;;;;;;;;;;;;20.05;22.40;96674.19;10514325;28;2007;-70
2024/01/12 01:54:30;;;;;;;;;;;;;;;20.04;22.43;96677.06;10498850;28;1883;-71
2024/01/12 01:59:31;;;;;;;;;;;;;;;20.05;22.43;96683.94;10512794;28;1987;-69
2024/01/12 02:04:31;;;;;;;;;;;;;;;20.04;22.50;96663.91;10514605;28;2827;-67
2024/01/12 02:09:32;;;;;;;;;;;;;;;20.04;22.30;96674.44;10514664;28;2037;-69
2024/01/12 02:14:32;;;;;;;;;;;;;;;20.03;22.52;96662.31;10493982;28;1946;-70
2024/01/12 02:19:33;;;;;;;;;;;;;;;20.02;22.42;96663.34;10515340;28;2192;-69
2024/01/12 02:24:33;;;;;;;;;;;;;;;20.02;22.20;96663.34;10511585;28;1931;-69
2024/01/12 02:29:33;;;;;;;;;;;;;;;20.03;22.41;96649.16;10513332;28;2059;-69
2024/01/12 02:34:33;;;;;;;;;;;;;;;20.00;22.14;96645.19;10503701;28;2082;-69
2024/01/12 02:39:34;;;;;;;;;;;;;;;20.00;22.12;96639.94;10517577;28;1959;-70
2024/01/12 02:44:34;;;;;;;;;;;;;;;19.99;22.38;96627.78;10517834;28;1885;-69
2024/01/12 02:49:34;;;;;;;;;;;;;;;19.99;22.16;96627.03;10496255;28;2448;-69
2024/01/12 02:54:37;;;;;;;;;;;;;;;19.99;22.19;96611.22;10512223;28;2068;-69
2024/01/12 02:59:37;;;;;;;;;;;;;;;19.99;22.32;96605.97;10518419;28;2041;-69
2024/01/12 03:04:37;;;;;;;;;;;;;;;19.96;22.32;96585.41;10517038;28;2184;-69
2024/01/12 03:09:40;;;;;;;;;;;;;;;19.94;22.41;96592.75;10485241;28;1949;-69
2024/01/12 03:14:40;;;;;;;;;;;;;;;19.95;22.27;96602.22;10522899;28;2014;-69
2024/01/12 03:19:41;;;;;;;;;;;;;;;19.95;22.25;96602.22;10516620;28;1995;-69
2024/01/12 03:24:41;;;;;;;;;;;;;;;19.94;22.23;96609.34;10520230;28;1956;-69
2024/01/12 03:29:41;;;;;;;;;;;;;;;19.93;22.22;96609.56;10513319;28;1933;-69
2024/01/12 03:34:41;;;;;;;;;;;;;;;19.92;22.22;96608.00;10521900;28;2730;-70
2024/01/12 03:39:42;;;;;;;;;;;;;;;19.92;22.31;96615.88;10513321;28;2014;-69
2024/01/12 03:44:42;;;;;;;;;;;;;;;19.92;22.12;96613.25;10512658;28;2088;-69
2024/01/12 03:49:43;;;;;;;;;;;;;;;19.91;22.22;96609.81;10514648;28;2189;-69
2024/01/12 03:54:43;;;;;;;;;;;;;;;19.90;22.20;96618.78;10516138;28;2115;-69
2024/01/12 03:59:44;;;;;;;;;;;;;;;19.91;22.17;96625.63;10515350;28;1910;-69
2024/01/12 04:04:44;;;;;;;;;;;;;;;19.89;22.25;96619.81;10511757;28;1973;-69
2024/01/12 04:09:44;;;;;;;;;;;;;;;19.90;22.41;96615.34;10518641;28;1963;-68
2024/01/12 04:14:45;;;;;;;;;;;;;;;19.89;22.08;96606.66;10514793;28;2064;-68
2024/01/12 04:19:45;;;;;;;;;;;;;;;19.88;22.01;96604.28;10509334;28;2442;-69
2024/01/12 04:24:45;;;;;;;;;;;;;;;19.87;22.37;96607.94;10516096;28;2017;-69
2024/01/12 04:29:46;;;;;;;;;;;;;;;19.87;22.22;96608.72;10512545;28;1951;-68
2024/01/12 04:34:46;;;;;;;;;;;;;;;19.88;22.18;96612.16;10515133;28;1891;-68
2024/01/12 04:39:46;;;;;;;;;;;;;;;19.87;22.13;96619.25;10517562;28;1980;-68
2024/01/12 04:44:47;;;;;;;;;;;;;;;19.88;22.22;96620.06;10518115;28;1877;-71
2024/01/12 04:49:47;;;;;;;;;;;;;;;19.87;22.22;96624.53;10512628;28;2025;-73
2024/01/12 04:54:47;;;;;;;;;;;;;;;19.87;22.06;96626.34;10516053;28;2092;-67
2024/01/12 04:59:47;;;;;;;;;;;;;;;19.86;22.15;96630.84;10517577;28;1910;-68
2024/01/12 05:04:48;;;;;;;;;;;;;;;19.85;22.18;96646.84;10511616;28;2415;-69
2024/01/12 05:09:48;;;;;;;;;;;;;;;19.84;22.22;96653.97;10491018;28;2052;-68
2024/01/12 05:14:48;;;;;;;;;;;;;;;19.85;22.31;96642.41;10511633;28;1932;-68
2024/01/12 05:19:49;;;;;;;;;;;;;;;19.86;22.16;96641.38;10511567;28;2161;-68
2024/01/12 05:24:49;;;;;;;;;;;;;;;19.84;22.22;96650.53;10514671;28;1941;-70
2024/01/12 05:29:49;;;;;;;;;;;;;;;19.82;22.38;96652.63;10513630;28;1981;-71
2024/01/12 05:34:49;;;;;;;;;;;;;;;19.83;22.33;96654.19;10519441;28;1975;-70
2024/01/12 05:39:50;;;;;;;;;;;;;;;19.82;22.38;96653.44;10516264;28;1938;-69
2024/01/12 05:44:50;;;;;;;;;;;;;;;19.79;22.41;96663.63;10509616;28;2239;-68
2024/01/12 05:49:50;;;;;;;;;;;;;;;19.83;22.23;96680.50;10523304;27;2658;-69
2024/01/12 05:54:51;;;;;;;;;;;;;;;19.82;22.24;96673.66;10513909;28;1994;-68
2024/01/12 05:59:52;;;;;;;;;;;;;;;19.80;22.16;96676.56;10510819;28;2095;-68
2024/01/12 06:04:52;;;;;;;;;;;;;;;19.81;22.25;96683.38;10508982;28;2001;-68
2024/01/12 06:09:53;;;;;;;;;;;;;;;19.81;22.22;96667.59;10522456;28;1921;-68
2024/01/12 06:14:53;;;;;;;;;;;;;;;19.77;22.46;96671.78;10517399;28;2055;-68
2024/01/12 06:19:54;;;;;;;;;;;;;;;19.79;22.34;96688.09;10519524;28;1993;-69
2024/01/12 06:24:54;;;;;;;;;;;;;;;19.81;22.23;96682.59;10525146;28;2025;-68
2024/01/12 06:29:54;;;;;;;;;;;;;;;19.82;22.26;96678.94;10516123;28;2642;-69
2024/01/12 06:34:55;;;;;;;;;;;;;;;19.81;22.16;96678.13;10520659;28;1880;-69
2024/01/12 06:39:57;;;;;;;;;;;;;;;19.82;22.19;96689.47;10520588;28;1992;-68
2024/01/12 06:44:57;;;;;;;;;;;;;;;19.81;22.01;96691.28;10520126;28;1959;-70
2024/01/12 06:49:58;;;;;;;;;;;;;;;19.81;22.29;96688.66;10522590;28;1834;-69
2024/01/12 06:54:59;;;;;;;;;;;;;;;19.84;22.19;96687.38;10503527;28;1931;-69
2024/01/12 06:59:59;;;;;;;;;;;;;;;19.82;22.18;96686.81;10502692;28;1918;-69
2024/01/12 07:04:59;;;;;;;;;;;;;;;19.82;22.21;96685.00;10521203;28;2007;-69
2024/01/12 07:09:59;;;;;;;;;;;;;;;19.83;22.10;96696.28;10519308;28;2299;-68
2024/01/12 07:15:00;;;;;;;;;;;;;;;19.83;22.21;96688.41;10517468;28;1983;-67
2024/01/12 07:20:00;;;;;;;;;;;;;;;19.83;22.28;96685.78;10514517;28;1948;-72
2024/01/12 07:25:00;;;;;;;;;;;;;;;19.82;22.51;96686.81;10517364;28;2019;-68
2024/01/12 07:30:00;;;;;;;;;;;;;;;19.81;22.09;96682.59;10521634;28;1918;-66
2024/01/12 07:35:01;;;;;;;;;;;;;;;19.81;22.48;96683.38;10526001;28;1837;-61
2024/01/12 07:40:01;;;;;;;;;;;;;;;19.84;22.44;96684.75;10516153;28;1947;-63
2024/01/12 07:45:02;;;;;;;;;;;;;;;19.84;22.79;96696.06;10519372;28;1870;-65
2024/01/12 07:50:02;;;;;;;;;;;;;;;19.86;22.75;96695.81;10514353;28;2047;-66
2024/01/12 07:55:03;;;;;;;;;;;;;;;19.88;22.37;96691.91;10518010;28;1857;-64
2024/01/12 08:00:04;;;;;;;;;;;;;;;19.88;22.66;96693.72;10511919;28;2227;-64
2024/01/12 08:05:05;;;;;;;;;;;;;;;19.86;22.96;96701.06;10514965;28;1923;-67
2024/01/12 08:10:06;;;;;;;;;;;;;;;19.88;23.17;96699.00;10512509;28;1961;-60
2024/01/12 08:15:09;;;;;;;;;;;;;;;19.87;23.10;96703.47;10516797;28;2044;-62
2024/01/12 08:20:09;;;;;;;;;;;;;;;19.88;23.25;96705.06;10510725;28;2080;-60
2024/01/12 08:25:10;;;;;;;;;;;;;;;19.88;23.36;96712.16;10516448;28;1905;-62
2024/01/12 08:30:12;;;;;;;;;;;;;;;19.89;23.06;96711.09;10511918;28;2106;-63
2024/01/12 08:35:13;;;;;;;;;;;;;;;19.90;23.49;96717.97;10513647;28;2128;-64
2024/01/12 08:40:13;;;;;;;;;;;;;;;19.90;23.51;96718.75;10509350;28;2277;-63
2024/01/12 08:45:14;;;;;;;;;;;;;;;19.93;23.66;96725.34;10490383;28;2065;-66
2024/01/12 08:50:14;;;;;;;;;;;;;;;19.91;23.40;96717.72;10511706;28;2302;-64
2024/01/12 08:55:14;;;;;;;;;;;;;;;19.95;23.55;96725.91;10512331;28;2040;-67
2024/01/12 09:00:16;;;;;;;;;;;;;;;19.97;23.86;96718.59;10507849;28;2111;-62
2024/01/12 09:05:16;;;;;;;;;;;;;;;20.01;23.39;96730.22;10515774;28;2032;-59
2024/01/12 09:10:17;;;;;;;;;;;;;;;20.03;23.84;96736.78;10511033;28;2048;-62
2024/01/12 09:15:17;;;;;;;;;;;;;;;20.04;23.66;96737.59;10506850;28;1914;-60
2024/01/12 09:20:18;;;;;;;;;;;;;;;20.05;23.87;96737.34;10510751;28;2040;-59
2024/01/12 09:25:19;;;;;;;;;;;;;;;20.04;23.93;96727.06;10515905;28;1877;-61
2024/01/12 09:30:20;;;;;;;;;;;;;;;20.08;24.19;96725.53;10507066;28;2084;-63
2024/01/12 09:35:21;;;;;;;;;;;;;;;20.08;24.42;96728.16;10508443;28;1973;-61
2024/01/12 09:40:21;;;;;;;;;;;;;;;20.07;24.19;96730.00;10511293;28;1910;-62
2024/01/12 09:45:21;;;;;;;;;;;;;;;20.09;24.34;96724.50;10513543;28;2396;-61
2024/01/12 09:50:21;;;;;;;;;;;;;;;20.09;24.46;96735.03;10512440;28;2076;-65
2024/01/12 09:55:22;;;;;;;;;;;;;;;20.08;24.75;96733.44;10489965;28;2165;-66
2024/01/12 10:00:24;;;;;;;;;;;;;;;20.06;24.90;96738.16;10507372;28;2071;-63
2024/01/12 10:05:24;;;;;;;;;;;;;;;20.08;25.41;96736.06;10507783;28;2106;-59
2024/01/12 10:10:25;;;;;;;;;;;;;;;20.10;25.13;96724.25;10507064;28;2007;-60
2024/01/12 10:15:26;;;;;;;;;;;;;;;20.10;25.26;96720.81;10501343;28;1959;-61
2024/01/12 10:20:26;;;;;;;;;;;;;;;20.13;25.55;96720.34;10513904;28;1898;-61
2024/01/12 10:25:26;;;;;;;;;;;;;;;20.14;25.57;96714.00;10507262;28;1928;-62
2024/01/12 10:30:27;;;;;;;;;;;;;;;20.16;25.53;96711.94;10512001;28;2603;-63
2024/01/12 10:35:27;;;;;;;;;;;;;;;20.16;25.80;96696.13;10511134;28;1873;-65
2024/01/12 10:40:27;;;;;;;;;;;;;;;20.17;25.64;96703.78;10508556;28;2040;-65
2024/01/12 10:45:27;;;;;;;;;;;;;;;20.16;26.07;96696.94;10509218;28;1932;-65
2024/01/12 10:50:28;;;;;;;;;;;;;;;20.18;25.85;96699.31;10509538;28;1946;-64
2024/01/12 10:55:33;;;;;;;;;;;;;;;20.21;25.83;96698.88;10502117;28;2131;-61
2024/01/12 11:00:33;;;;;;;;;;;;;;;20.20;26.16;96681.47;10493422;28;2024;-63
2024/01/12 11:05:33;;;;;;;;;;;;;;;20.22;26.11;96688.06;10510705;28;1919;-61
2024/01/12 11:10:33;;;;;;;;;;;;;;;20.21;26.25;96683.88;10482953;28;2007;-60
2024/01/12 11:15:34;;;;;;;;;;;;;;;20.23;26.36;96680.97;10511224;28;2531;-65
2024/01/12 11:20:34;;;;;;;;;;;;;;;20.24;26.19;96667.56;10515291;28;1910;-65
2024/01/12 11:25:35;;;;;;;;;;;;;;;20.23;26.23;96662.56;10497836;28;2063;-65
2024/01/12 11:30:39;;;;;;;;;;;;;;;20.24;26.24;96656.22;10514375;28;2027;-65
2024/01/12 11:35:39;;;;;;;;;;;;;;;20.24;26.38;96658.84;10509549;28;2062;-65
2024/01/12 11:40:42;;;;;;;;;;;;;;;20.27;26.71;96661.81;10526795;28;2212;-61
2024/01/12 11:45:43;;;;;;;;;;;;;;;20.29;27.01;96666.81;10513523;28;1970;-65
2024/01/12 11:50:44;;;;;;;;;;;;;;;20.31;27.26;96667.38;10496955;28;2004;-64
2024/01/12 11:55:44;;;;;;;;;;;;;;;20.32;27.30;96652.38;10516638;28;2024;-67
2024/01/12 12:00:47;;;;;;;;;;;;;;;20.30;27.33;96649.97;10514274;28;2336;-70
2024/01/12 12:05:47;;;;;;;;;;;;;;;20.34;27.41;96640.53;10505200;28;1945;-67
2024/01/12 12:10:48;;;;;;;;;;;;;;;20.35;27.37;96650.03;10511762;28;1877;-67
2024/01/12 12:15:48;;;;;;;;;;;;;;;20.37;27.21;96650.56;10508815;28;2229;-67
2024/01/12 12:20:48;;;;;;;;;;;;;;;20.40;27.21;96657.97;10512224;28;1985;-65
2024/01/12 12:25:48;;;;;;;;;;;;;;;20.42;27.13;96642.72;10491996;28;2057;-61
2024/01/12 12:30:53;;;;;;;;;;;;;;;20.45;27.05;96652.75;10500480;28;2136;-61
2024/01/12 12:36:06;;;;;;;;;;;;;;;20.45;27.24;96642.19;10509737;28;1897;-64
2024/01/12 12:41:07;;;;;;;;;;;;;;;20.46;27.36;96649.06;10511032;28;2302;-63
2024/01/12 12:46:07;;;;;;;;;;;;;;;20.47;27.10;96634.03;10508462;28;1949;-63
2024/01/12 12:51:08;;;;;;;;;;;;;;;20.49;27.24;96637.22;10508761;28;2368;-66
2024/01/12 12:56:08;;;;;;;;;;;;;;;20.49;27.21;96622.22;10512867;28;1865;-67
2024/01/12 13:01:11;;;;;;;;;;;;;;;20.49;27.29;96622.22;10502996;28;2091;-64
2024/01/12 13:06:11;;;;;;;;;;;;;;;20.50;27.43;96630.91;10510313;28;1917;-61
2024/01/12 13:11:11;;;;;;;;;;;;;;;20.51;27.35;96628.03;10489615;28;2048;-64
2024/01/12 13:16:12;;;;;;;;;;;;;;;20.52;27.46;96621.72;10512380;28;2167;-63
2024/01/12 13:21:12;;;;;;;;;;;;;;;20.51;27.21;96620.13;10508320;28;2039;-64
2024/01/12 13:26:12;;;;;;;;;;;;;;;20.52;27.36;96619.09;10494489;28;2188;-62
2024/01/12 13:31:12;;;;;;;;;;;;;;;20.53;27.36;96611.97;10503030;28;2460;-64
2024/01/12 13:36:13;;;;;;;;;;;;;;;20.53;27.27;96607.50;10512488;28;2007;-62
2024/01/12 13:41:13;;;;;;;;;;;;;;;20.55;27.46;96609.88;10489079;28;2068;-64
2024/01/12 13:46:14;;;;;;;;;;;;;;;20.52;27.49;96608.56;10504883;28;2131;-63
2024/01/12 13:51:15;;;;;;;;;;;;;;;20.55;27.43;96604.59;10505138;28;2015;-65
2024/01/12 13:56:15;;;;;;;;;;;;;;;20.55;27.34;96594.06;10504237;28;2119;-64
2024/01/12 14:01:16;;;;;;;;;;;;;;;20.53;27.14;96578.53;10504704;28;2114;-61
2024/01/12 14:06:16;;;;;;;;;;;;;;;20.53;27.35;96577.72;10499459;28;2052;-63
2024/01/12 14:11:16;;;;;;;;;;;;;;;20.54;27.49;96585.41;10501196;28;2206;-62
2024/01/12 14:16:17;;;;;;;;;;;;;;;20.55;27.41;96579.06;10499757;28;2103;-62
2024/01/12 14:21:17;;;;;;;;;;;;;;;20.55;27.21;96573.78;10501114;28;1930;-60
2024/01/12 14:26:17;;;;;;;;;;;;;;;20.54;27.31;96582.75;10504891;28;2188;-60
2024/01/12 14:31:17;;;;;;;;;;;;;;;20.52;27.35;96573.53;10509722;28;1961;-64
2024/01/12 14:36:20;;;;;;;;;;;;;;;20.50;27.44;96581.69;10493492;28;2051;-62
2024/01/12 14:41:20;;;;;;;;;;;;;;;20.50;27.22;96581.69;10520718;28;2067;-62
2024/01/12 14:46:21;;;;;;;;;;;;;;;20.50;27.08;96583.50;10508924;28;2043;-66
2024/01/12 14:51:21;;;;;;;;;;;;;;;20.47;27.09;96590.06;10497815;28;2345;-62
2024/01/12 14:56:21;;;;;;;;;;;;;;;20.45;27.05;96579.00;10518309;28;1985;-63
2024/01/12 15:01:22;;;;;;;;;;;;;;;20.43;27.22;96588.19;10494517;28;2061;-68
2024/01/12 15:06:22;;;;;;;;;;;;;;;20.42;26.89;96586.63;10501428;28;1864;-65
2024/01/12 15:11:22;;;;;;;;;;;;;;;20.40;26.52;96586.06;10509634;28;2056;-65
2024/01/12 15:16:23;;;;;;;;;;;;;;;20.39;26.63;96581.84;10492322;28;1919;-65
2024/01/12 15:21:23;;;;;;;;;;;;;;;20.38;26.49;96588.16;10512794;28;1906;-64
2024/01/12 15:26:24;;;;;;;;;;;;;;;20.37;26.22;96589.19;10493181;28;2338;-66
2024/01/12 15:31:24;;;;;;;;;;;;;;;20.35;26.03;96591.28;10514671;28;2029;-65
2024/01/12 15:36:25;;;;;;;;;;;;;;;20.34;25.95;96598.38;10512395;28;2543;-65
2024/01/12 15:41:25;;;;;;;;;;;;;;;20.34;26.04;96603.66;10493286;28;1959;-65
2024/01/12 15:46:25;;;;;;;;;;;;;;;20.34;25.72;96613.41;10511425;28;1898;-66
2024/01/12 15:51:26;;;;;;;;;;;;;;;20.31;25.88;96598.91;10508694;28;1992;-66
2024/01/12 15:56:26;;;;;;;;;;;;;;;20.32;25.56;96589.19;10488815;28;2092;-66
2024/01/12 16:01:26;;;;;;;;;;;;;;;20.32;25.72;96600.47;10514216;28;2075;-66
2024/01/12 16:06:26;;;;;;;;;;;;;;;20.32;25.31;96592.56;10509720;28;1971;-66
2024/01/12 16:11:27;;;;;;;;;;;;;;;20.30;25.29;96597.31;10498494;28;1894;-63
2024/01/12 16:16:29;;;;;;;;;;;;;;;20.31;24.74;96593.63;10509007;28;2431;-59
2024/01/12 16:21:34;;;;;;;;;;;;;;;20.47;24.92;96605.88;10511221;28;2048;-59
2024/01/12 16:26:37;;;;;;;;;;;;;;;20.64;24.92;96611.81;10511787;28;2047;-61
2024/01/12 16:31:38;;;;;;;;;;;;;;;20.74;24.83;96603.16;10512068;28;2009;-59
2024/01/12 16:36:38;;;;;;;;;;;;;;;20.87;24.76;96608.00;10511481;28;1973;-61
2024/01/12 16:41:38;;;;;;;;;;;;;;;20.97;24.13;96608.06;10509244;28;2087;-63
2024/01/12 16:46:41;;;;;;;;;;;;;;;21.06;24.29;96602.06;10479914;28;1950;-62
2024/01/12 16:51:42;;;;;;;;;;;;;;;21.14;23.80;96592.09;10509325;28;2111;-61
2024/01/12 16:56:42;;;;;;;;;;;;;;;21.19;23.76;96594.75;10490351;28;2683;-61
2024/01/12 17:01:42;;;;;;;;;;;;;;;21.23;23.60;96593.19;10510369;28;1969;-60
2024/01/12 17:06:43;;;;;;;;;;;;;;;21.27;23.69;96595.03;10512937;28;1969;-61
2024/01/12 17:11:46;;;;;;;;;;;;;;;21.29;23.52;96595.59;10510557;28;2102;-60
2024/01/12 17:16:46;;;;;;;;;;;;;;;21.31;23.35;96597.97;10509224;28;2067;-60
2024/01/12 17:21:46;;;;;;;;;;;;;;;21.32;23.52;96607.47;10514055;28;2289;-61
2024/01/12 17:26:48;;;;;;;;;;;;;;;21.35;23.40;96614.88;10513059;28;1932;-63
2024/01/12 17:31:48;;;;;;;;;;;;;;;21.38;23.16;96606.44;10510777;28;1899;-68
2024/01/12 17:36:49;;;;;;;;;;;;;;;21.34;23.24;96619.34;10500384;28;2199;-65
2024/01/12 17:41:49;;;;;;;;;;;;;;;21.33;23.75;96623.03;10518830;28;2689;-69
2024/01/12 17:46:49;;;;;;;;;;;;;;;21.36;23.84;96605.91;10515126;28;1889;-66
2024/01/12 17:51:50;;;;;;;;;;;;;;;21.36;23.25;96617.25;10514378;28;2056;-61
2024/01/12 17:56:50;;;;;;;;;;;;;;;21.36;23.57;96608.53;10516656;28;1952;-65
2024/01/12 18:01:51;;;;;;;;;;;;;;;21.37;23.42;96610.13;10479522;28;2043;-64
2024/01/12 18:06:51;;;;;;;;;;;;;;;21.37;23.42;96612.78;10511659;28;2164;-65
2024/01/12 18:11:51;;;;;;;;;;;;;;;21.39;23.27;96611.44;10513330;28;2277;-65
2024/01/12 18:16:51;;;;;;;;;;;;;;;21.38;22.75;96623.06;10513648;28;2069;-64
2024/01/12 18:21:52;;;;;;;;;;;;;;;21.42;23.06;96625.97;10508853;28;2016;-65
2024/01/12 18:26:52;;;;;;;;;;;;;;;21.32;23.61;96634.63;10493551;28;2752;-68
2024/01/12 18:31:53;;;;;;;;;;;;;;;21.24;23.01;96631.69;10503902;28;2032;-77
2024/01/12 18:36:54;;;;;;;;;;;;;;;21.17;23.13;96644.28;10505105;28;2004;-80
2024/01/12 18:41:54;;;;;;;;;;;;;;;21.05;23.05;96647.13;10512111;28;1913;-78
2024/01/12 18:46:55;;;;;;;;;;;;;;;20.89;23.00;96635.69;10514447;28;2037;-78
2024/01/12 18:51:55;;;;;;;;;;;;;;;20.80;23.05;96634.56;10510894;28;2000;-80
2024/01/12 18:56:56;;;;;;;;;;;;;;;20.68;23.04;96641.88;10488223;28;2128;-79
2024/01/12 19:01:56;;;;;;;;;;;;;;;20.60;23.04;96644.97;10505055;28;1997;-79
2024/01/12 19:06:56;;;;;;;;;;;;;;;20.53;23.00;96654.91;10513823;28;1960;-80
2024/01/12 19:11:56;;;;;;;;;;;;;;;20.49;23.58;96664.34;10515280;28;2039;-77
2024/01/12 19:16:57;;;;;;;;;;;;;;;20.43;23.29;96672.47;10520540;28;1928;-79
2024/01/12 19:21:57;;;;;;;;;;;;;;;20.40;23.32;96683.50;10520058;28;2547;-79
2024/01/12 19:26:57;;;;;;;;;;;;;;;20.32;23.38;96678.69;10518872;28;1888;-78
2024/01/12 19:31:57;;;;;;;;;;;;;;;20.28;23.74;96686.28;10513772;28;1904;-76
2024/01/12 19:36:58;;;;;;;;;;;;;;;20.25;23.23;96673.63;10494353;28;2083;-79
2024/01/12 19:41:59;;;;;;;;;;;;;;;20.22;23.37;96676.75;10526702;28;1963;-77
2024/01/12 19:46:59;;;;;;;;;;;;;;;20.20;23.50;96674.38;10512680;28;2055;-77
2024/01/12 19:51:59;;;;;;;;;;;;;;;20.17;23.66;96679.31;10514407;28;1988;-78
2024/01/12 19:56:59;;;;;;;;;;;;;;;20.16;24.53;96673.25;10513609;28;2081;-69
2024/01/12 20:02:00;;;;;;;;;;;;;;;20.23;24.11;96667.81;10497572;28;2075;-63
2024/01/12 20:07:01;;;;;;;;;;;;;;;20.27;24.48;96653.91;10512607;28;1924;-76
2024/01/12 20:12:01;;;;;;;;;;;;;;;20.33;23.57;96644.22;10509171;28;2403;-73
2024/01/12 20:17:02;;;;;;;;;;;;;;;20.37;23.38;96644.50;10507118;28;2003;-78
2024/01/12 20:22:03;;;;;;;;;;;;;;;20.38;23.41;96657.41;10509173;28;1968;-72
2024/01/12 20:27:03;;;;;;;;;;;;;;;20.66;23.24;96658.97;10515190;28;2051;-77
2024/01/12 20:32:03;;;;;;;;;;;;;;;20.83;22.83;96649.09;10515469;28;1956;-70
2024/01/12 20:37:04;;;;;;;;;;;;;;;21.01;23.33;96630.22;10516242;28;1985;-70
2024/01/12 20:42:04;;;;;;;;;;;;;;;21.17;23.69;96616.09;10515830;28;1938;-69
2024/01/12 20:47:05;;;;;;;;;;;;;;;21.25;24.31;96625.34;10517058;28;1828;-67
2024/01/12 20:52:05;;;;;;;;;;;;;;;21.43;24.17;96622.28;10517561;28;1645;-67
2024/01/12 20:57:05;;;;;;;;;;;;;;;21.54;24.41;96624.69;10518895;28;2343;-70
2024/01/12 21:02:05;;;;;;;;;;;;;;;21.70;24.65;96638.75;10520884;28;1910;-69
2024/01/12 21:07:06;;;;;;;;;;;;;;;21.76;24.44;96633.22;10521098;28;1554;-69
2024/01/12 21:12:06;;;;;;;;;;;;;;;21.84;24.79;96624.03;10519210;28;1486;-69
2024/01/12 21:17:06;;;;;;;;;;;;;;;21.88;24.63;96624.31;10517420;28;1735;-68
2024/01/12 21:22:07;;;;;;;;;;;;;;;21.90;24.91;96625.63;10517293;28;1973;-69
2024/01/12 21:27:08;;;;;;;;;;;;;;;21.92;24.45;96628.00;10517313;28;1476;-69
2024/01/12 21:32:08;;;;;;;;;;;;;;;21.92;24.90;96607.69;10519442;28;1645;-69
2024/01/12 21:37:09;;;;;;;;;;;;;;;21.93;23.93;96606.63;10513905;28;1475;-69
2024/01/12 21:42:10;;;;;;;;;;;;;;;21.85;23.51;96612.41;10501052;28;1906;-68
2024/01/12 21:47:10;;;;;;;;;;;;;;;21.81;23.18;96619.25;10517152;28;2532;-68
2024/01/12 21:52:10;;;;;;;;;;;;;;;21.77;22.97;96628.72;10518031;28;1638;-69
2024/01/12 21:57:11;;;;;;;;;;;;;;;21.68;23.50;96633.72;10516284;28;2121;-70
2024/01/12 22:02:11;;;;;;;;;;;;;;;21.61;24.54;96633.19;10508139;28;1989;-68
2024/01/12 22:07:12;;;;;;;;;;;;;;;21.61;24.54;96629.75;10520283;28;2009;-67
2024/01/12 22:12:15;;;;;;;;;;;;;;;21.60;24.47;96633.41;10512664;28;1927;-68
2024/01/12 22:17:15;;;;;;;;;;;;;;;21.57;24.47;96639.22;10492318;28;1892;-67
2024/01/12 22:22:15;;;;;;;;;;;;;;;21.57;24.56;96628.66;10512919;28;2043;-68
2024/01/12 22:27:16;;;;;;;;;;;;;;;21.54;24.35;96621.25;10494012;28;1996;-68
2024/01/12 22:32:16;;;;;;;;;;;;;;;21.52;24.41;96620.72;10502290;28;2116;-68
2024/01/12 22:37:16;;;;;;;;;;;;;;;21.48;24.52;96615.19;10506336;28;2763;-70
2024/01/12 22:42:17;;;;;;;;;;;;;;;21.44;24.23;96606.19;10510757;28;1983;-67
2024/01/12 22:47:17;;;;;;;;;;;;;;;21.43;24.48;96611.75;10493598;28;2007;-68
2024/01/12 22:52:18;;;;;;;;;;;;;;;21.37;24.34;96612.78;10519179;28;2051;-67
2024/01/12 22:57:18;;;;;;;;;;;;;;;21.36;24.28;96611.16;10495009;28;2216;-68
2024/01/12 23:02:18;;;;;;;;;;;;;;;21.30;24.30;96599.03;10517458;28;1971;-68
2024/01/12 23:07:18;;;;;;;;;;;;;;;21.28;24.05;96593.22;10514231;28;2088;-68
2024/01/12 23:12:19;;;;;;;;;;;;;;;21.24;24.36;96581.59;10518108;28;1920;-68
2024/01/12 23:17:19;;;;;;;;;;;;;;;21.24;24.25;96574.47;10518244;28;2347;-68
2024/01/12 23:22:19;;;;;;;;;;;;;;;21.21;24.19;96561.00;10509361;28;2318;-67
2024/01/12 23:27:20;;;;;;;;;;;;;;;21.18;24.17;96556.25;10515927;28;2068;-68
2024/01/12 23:32:20;;;;;;;;;;;;;;;21.16;24.07;96561.00;10511900;28;1902;-68
2024/01/12 23:37:22;;;;;;;;;;;;;;;21.15;23.95;96559.41;10517437;28;2454;-68
2024/01/12 23:42:22;;;;;;;;;;;;;;;21.12;24.05;96552.81;10510417;28;1909;-67
2024/01/12 23:47:22;;;;;;;;;;;;;;;21.11;23.90;96550.41;10517222;28;2098;-68
2024/01/12 23:52:23;;;;;;;;;;;;;;;21.08;23.61;96547.25;10493321;28;2006;-68
2024/01/12 23:57:23;;;;;;;;;;;;;;;21.07;23.67;96544.88;10508118;28;2090;-69
